createdAt,value
2017-01-02T00:00:22.889Z,669
2017-01-02T00:01:23.005Z,666
2017-01-02T00:02:23.087Z,662
2017-01-02T00:03:23.192Z,600
2017-01-02T00:04:23.265Z,642
2017-01-02T00:05:23.396Z,659
2017-01-02T00:06:23.517Z,661
2017-01-02T00:07:23.598Z,632
2017-01-02T00:08:23.692Z,649
2017-01-02T00:09:23.814Z,680
2017-01-02T00:10:23.913Z,681
2017-01-02T00:11:24.069Z,667
2017-01-02T00:12:24.163Z,680
2017-01-02T00:13:24.284Z,632
2017-01-02T00:14:24.429Z,634
2017-01-02T00:15:24.529Z,646
2017-01-02T00:16:24.705Z,637
2017-01-02T00:17:24.804Z,651
2017-01-02T00:18:24.876Z,653
2017-01-02T00:19:24.949Z,642
2017-01-02T00:20:25.016Z,668
2017-01-02T00:21:25.153Z,675
2017-01-02T00:22:25.272Z,673
2017-01-02T00:23:25.364Z,656
2017-01-02T00:24:25.461Z,657
2017-01-02T00:25:25.579Z,658
2017-01-02T00:26:25.671Z,659
2017-01-02T00:27:25.810Z,660
2017-01-02T00:28:25.962Z,661
2017-01-02T00:29:26.068Z,668
2017-01-02T00:30:26.298Z,674
2017-01-02T00:31:26.446Z,674
2017-01-02T00:32:26.545Z,672
2017-01-02T00:33:26.617Z,683
2017-01-02T00:34:26.697Z,683
2017-01-02T00:35:26.811Z,683
2017-01-02T00:36:26.909Z,680
2017-01-02T00:37:27.050Z,674
2017-01-02T00:38:27.140Z,673
2017-01-02T00:39:27.289Z,672
2017-01-02T00:40:27.399Z,489
2017-01-02T00:41:27.482Z,703
2017-01-02T00:42:27.640Z,706
2017-01-02T00:43:27.780Z,681
2017-01-02T00:44:27.867Z,770
2017-01-02T00:45:27.967Z,767
2017-01-02T00:46:28.058Z,756
2017-01-02T00:47:28.122Z,726
2017-01-02T00:48:28.282Z,670
2017-01-02T00:49:28.384Z,640
2017-01-02T00:50:28.485Z,607
2017-01-02T00:51:28.563Z,586
2017-01-02T00:52:28.682Z,576
2017-01-02T00:53:28.812Z,556
2017-01-02T00:54:28.910Z,550
2017-01-02T00:55:29.025Z,549
2017-01-02T00:56:29.145Z,539
2017-01-02T00:57:29.245Z,574
2017-01-02T00:58:29.337Z,588
2017-01-02T00:59:29.492Z,568
2017-01-02T01:00:29.596Z,572
2017-01-02T01:01:29.723Z,601
2017-01-02T01:02:29.861Z,594
2017-01-02T01:03:29.949Z,588
2017-01-02T01:04:30.018Z,588
2017-01-02T01:05:30.129Z,580
2017-01-02T01:06:30.265Z,620
2017-01-02T01:07:30.366Z,649
2017-01-02T01:08:30.482Z,708
2017-01-02T01:09:30.547Z,627
2017-01-02T01:10:30.635Z,636
2017-01-02T01:11:30.725Z,656
2017-01-02T01:12:30.823Z,599
2017-01-02T01:13:30.980Z,613
2017-01-02T01:14:31.073Z,621
2017-01-02T01:15:31.209Z,615
2017-01-02T01:16:31.376Z,624
2017-01-02T01:17:31.441Z,608
2017-01-02T01:18:31.508Z,622
2017-01-02T01:19:31.617Z,638
2017-01-02T01:20:32.314Z,646
2017-01-02T01:21:31.807Z,670
2017-01-02T01:22:31.907Z,688
2017-01-02T01:23:32.016Z,673
2017-01-02T01:24:32.227Z,704
2017-01-02T01:25:32.326Z,677
2017-01-02T01:26:32.436Z,673
2017-01-02T01:27:32.529Z,678
2017-01-02T01:28:32.632Z,686
2017-01-02T01:29:32.764Z,670
2017-01-02T01:30:32.883Z,668
2017-01-02T01:31:32.997Z,674
2017-01-02T01:32:33.086Z,664
2017-01-02T01:33:33.156Z,687
2017-01-02T01:34:33.274Z,687
2017-01-02T01:35:33.355Z,702
2017-01-02T01:36:33.506Z,706
2017-01-02T01:37:33.699Z,698
2017-01-02T01:38:33.804Z,680
2017-01-02T01:39:33.895Z,682
2017-01-02T01:40:33.973Z,680
2017-01-02T01:41:34.040Z,678
2017-01-02T01:42:34.186Z,697
2017-01-02T01:43:34.321Z,680
2017-01-02T01:44:34.447Z,685
2017-01-02T01:45:34.661Z,672
2017-01-02T01:46:34.759Z,609
2017-01-02T01:47:34.895Z,689
2017-01-02T01:48:34.981Z,698
2017-01-02T01:49:35.064Z,691
2017-01-02T01:50:35.159Z,694
2017-01-02T01:51:35.248Z,702
2017-01-02T01:52:35.379Z,683
2017-01-02T01:53:35.542Z,655
2017-01-02T01:54:35.636Z,659
2017-01-02T01:55:35.725Z,707
2017-01-02T01:56:35.802Z,659
2017-01-02T01:57:35.911Z,671
2017-01-02T01:58:36.025Z,671
2017-01-02T01:59:36.119Z,677
2017-01-02T02:00:36.187Z,677
2017-01-02T02:01:36.288Z,673
2017-01-02T02:02:36.365Z,672
2017-01-02T02:03:36.507Z,663
2017-01-02T02:04:36.622Z,656
2017-01-02T02:05:36.777Z,545
2017-01-02T02:06:36.847Z,514
2017-01-02T02:07:36.941Z,544
2017-01-02T02:08:37.045Z,553
2017-01-02T02:09:37.134Z,541
2017-01-02T02:10:37.215Z,613
2017-01-02T02:11:37.346Z,768
2017-01-02T02:12:37.436Z,766
2017-01-02T02:13:37.539Z,766
2017-01-02T02:14:37.650Z,765
2017-01-02T02:15:37.747Z,767
2017-01-02T02:16:37.860Z,765
2017-01-02T02:17:37.989Z,766
2017-01-02T02:18:38.139Z,766
2017-01-02T02:19:38.249Z,768
2017-01-02T02:20:38.315Z,768
2017-01-02T02:21:38.410Z,767
2017-01-02T02:22:38.489Z,775
2017-01-02T02:23:38.647Z,782
2017-01-02T02:24:38.759Z,779
2017-01-02T02:25:38.846Z,773
2017-01-02T02:26:38.964Z,768
2017-01-02T02:27:39.068Z,754
2017-01-02T02:28:39.169Z,760
2017-01-02T02:29:39.272Z,733
2017-01-02T02:30:39.353Z,793
2017-01-02T02:31:39.468Z,789
2017-01-02T02:32:39.564Z,793
2017-01-02T02:33:40.326Z,803
2017-01-02T02:34:39.774Z,762
2017-01-02T02:35:39.881Z,738
2017-01-02T02:36:39.950Z,738
2017-01-02T02:37:40.209Z,743
2017-01-02T02:38:40.383Z,742
2017-01-02T02:39:40.509Z,741
2017-01-02T02:40:40.581Z,740
2017-01-02T02:41:40.702Z,738
2017-01-02T02:42:40.813Z,736
2017-01-02T02:43:40.927Z,732
2017-01-02T02:44:41.079Z,723
2017-01-02T02:45:41.185Z,702
2017-01-02T02:46:41.293Z,563
2017-01-02T02:47:41.408Z,508
2017-01-02T02:48:41.501Z,495
2017-01-02T02:49:41.628Z,470
2017-01-02T02:50:41.742Z,476
2017-01-02T02:51:41.850Z,481
2017-01-02T02:52:41.993Z,513
2017-01-02T02:53:42.923Z,490
2017-01-02T02:54:43.016Z,481
2017-01-02T02:55:43.119Z,478
2017-01-02T02:56:43.223Z,487
2017-01-02T02:57:43.306Z,453
2017-01-02T02:58:43.375Z,453
2017-01-02T02:59:43.514Z,450
2017-01-02T03:00:43.628Z,450
2017-01-02T03:01:43.723Z,452
2017-01-02T03:02:43.842Z,451
2017-01-02T03:03:43.969Z,455
2017-01-02T03:04:44.082Z,458
2017-01-02T03:05:44.154Z,455
2017-01-02T03:06:44.234Z,454
2017-01-02T03:07:44.305Z,456
2017-01-02T03:08:44.373Z,459
2017-01-02T03:09:44.451Z,463
2017-01-02T03:10:44.581Z,463
2017-01-02T03:11:44.664Z,465
2017-01-02T03:12:44.743Z,466
2017-01-02T03:13:44.812Z,467
2017-01-02T03:14:44.896Z,469
2017-01-02T03:15:44.978Z,469
2017-01-02T03:16:45.061Z,470
2017-01-02T03:17:45.161Z,472
2017-01-02T03:18:45.244Z,473
2017-01-02T03:19:45.348Z,475
2017-01-02T03:20:45.419Z,477
2017-01-02T03:21:45.494Z,482
2017-01-02T03:22:45.622Z,489
2017-01-02T03:23:46.337Z,490
2017-01-02T03:24:45.790Z,486
2017-01-02T03:25:45.889Z,509
2017-01-02T03:26:46.009Z,529
2017-01-02T03:27:46.118Z,538
2017-01-02T03:28:46.203Z,532
2017-01-02T03:29:46.276Z,554
2017-01-02T03:30:46.368Z,687
2017-01-02T03:31:46.463Z,738
2017-01-02T03:32:46.655Z,764
2017-01-02T03:33:46.723Z,719
2017-01-02T03:34:46.814Z,723
2017-01-02T03:35:46.887Z,677
2017-01-02T03:36:46.967Z,632
2017-01-02T03:37:47.073Z,608
2017-01-02T03:38:47.141Z,557
2017-01-02T03:39:47.226Z,564
2017-01-02T03:40:47.333Z,575
2017-01-02T03:41:47.442Z,553
2017-01-02T03:42:47.555Z,567
2017-01-02T03:43:47.633Z,562
2017-01-02T03:44:47.740Z,557
2017-01-02T03:45:47.858Z,557
2017-01-02T03:46:48.002Z,560
2017-01-02T03:47:48.124Z,559
2017-01-02T03:48:48.213Z,545
2017-01-02T03:49:48.394Z,546
2017-01-02T03:50:48.524Z,546
2017-01-02T03:51:48.621Z,550
2017-01-02T03:52:48.689Z,553
2017-01-02T03:53:48.782Z,552
2017-01-02T03:54:48.868Z,553
2017-01-02T03:55:48.965Z,554
2017-01-02T03:56:49.054Z,555
2017-01-02T03:57:49.147Z,555
2017-01-02T03:58:49.266Z,553
2017-01-02T03:59:49.340Z,543
2017-01-02T04:00:49.443Z,551
2017-01-02T04:01:49.544Z,562
2017-01-02T04:02:49.652Z,564
2017-01-02T04:03:49.717Z,562
2017-01-02T04:04:49.805Z,558
2017-01-02T04:05:49.880Z,552
2017-01-02T04:06:49.966Z,552
2017-01-02T04:07:50.053Z,547
2017-01-02T04:08:50.153Z,550
2017-01-02T04:09:50.256Z,559
2017-01-02T04:10:50.428Z,534
2017-01-02T04:11:50.538Z,537
2017-01-02T04:12:50.645Z,539
2017-01-02T04:13:50.715Z,543
2017-01-02T04:14:50.810Z,545
2017-01-02T04:15:50.881Z,541
2017-01-02T04:16:50.993Z,541
2017-01-02T04:17:51.102Z,537
2017-01-02T04:18:51.165Z,513
2017-01-02T04:19:51.269Z,524
2017-01-02T04:20:51.362Z,514
2017-01-02T04:21:51.463Z,496
2017-01-02T04:22:51.623Z,507
2017-01-02T04:23:51.710Z,501
2017-01-02T04:24:52.338Z,493
2017-01-02T04:25:51.906Z,494
2017-01-02T04:26:52.031Z,494
2017-01-02T04:27:52.118Z,501
2017-01-02T04:28:52.194Z,498
2017-01-02T04:29:52.277Z,485
2017-01-02T04:30:52.359Z,493
2017-01-02T04:31:52.507Z,485
2017-01-02T04:32:52.607Z,482
2017-01-02T04:33:52.762Z,481
2017-01-02T04:34:52.875Z,479
2017-01-02T04:35:52.980Z,477
2017-01-02T04:36:53.065Z,489
2017-01-02T04:37:53.216Z,476
2017-01-02T04:38:53.294Z,473
2017-01-02T04:39:53.417Z,474
2017-01-02T04:40:53.500Z,474
2017-01-02T04:41:53.626Z,468
2017-01-02T04:42:53.708Z,470
2017-01-02T04:43:53.779Z,464
2017-01-02T04:44:53.860Z,464
2017-01-02T04:45:53.965Z,466
2017-01-02T04:46:54.059Z,462
2017-01-02T04:47:54.173Z,459
2017-01-02T04:48:54.244Z,453
2017-01-02T04:49:54.388Z,468
2017-01-02T04:50:54.460Z,447
2017-01-02T04:51:54.576Z,445
2017-01-02T04:52:54.675Z,463
2017-01-02T04:53:54.756Z,436
2017-01-02T04:54:54.865Z,433
2017-01-02T04:55:54.955Z,433
2017-01-02T04:56:55.042Z,436
2017-01-02T04:57:55.148Z,440
2017-01-02T04:58:55.247Z,441
2017-01-02T04:59:55.359Z,438
2017-01-02T05:00:55.452Z,438
2017-01-02T05:01:55.623Z,436
2017-01-02T05:02:55.683Z,437
2017-01-02T05:03:55.771Z,435
2017-01-02T05:04:55.887Z,435
2017-01-02T05:05:55.978Z,436
2017-01-02T05:06:56.071Z,440
2017-01-02T05:07:56.250Z,552
2017-01-02T05:08:56.368Z,558
2017-01-02T05:09:56.467Z,583
2017-01-02T05:10:56.594Z,590
2017-01-02T05:11:56.746Z,600
2017-01-02T05:12:56.873Z,612
2017-01-02T05:13:56.964Z,624
2017-01-02T05:14:57.073Z,622
2017-01-02T05:15:57.190Z,616
2017-01-02T05:16:57.261Z,616
2017-01-02T05:17:57.427Z,620
2017-01-02T05:18:57.494Z,622
2017-01-02T05:19:57.595Z,626
2017-01-02T05:20:57.684Z,628
2017-01-02T05:21:57.776Z,624
2017-01-02T05:22:57.916Z,624
2017-01-02T05:23:58.034Z,661
2017-01-02T05:24:58.114Z,660
2017-01-02T05:25:58.226Z,701
2017-01-02T05:26:58.290Z,670
2017-01-02T05:27:58.439Z,678
2017-01-02T05:28:58.564Z,678
2017-01-02T05:29:58.679Z,672
2017-01-02T05:30:58.773Z,681
2017-01-02T05:31:58.876Z,676
2017-01-02T05:32:58.997Z,678
2017-01-02T05:33:59.135Z,678
2017-01-02T05:34:59.298Z,679
2017-01-02T05:35:59.413Z,677
2017-01-02T05:36:59.480Z,679
2017-01-02T05:37:59.587Z,676
2017-01-02T05:38:59.679Z,673
2017-01-02T05:39:59.756Z,671
2017-01-02T05:40:59.847Z,672
2017-01-02T05:41:59.988Z,668
2017-01-02T05:43:00.105Z,666
2017-01-02T05:44:00.198Z,662
2017-01-02T05:45:00.312Z,663
2017-01-02T05:46:00.421Z,660
2017-01-02T05:47:00.502Z,659
2017-01-02T05:48:00.573Z,659
2017-01-02T05:49:00.783Z,663
2017-01-02T05:50:00.941Z,664
2017-01-02T05:51:01.030Z,662
2017-01-02T05:52:01.142Z,661
2017-01-02T05:53:01.245Z,659
2017-01-02T05:54:01.331Z,659
2017-01-02T05:55:01.452Z,655
2017-01-02T05:56:01.553Z,656
2017-01-02T05:57:01.638Z,657
2017-01-02T05:58:01.703Z,656
2017-01-02T05:59:01.848Z,656
2017-01-02T06:00:01.938Z,654
2017-01-02T06:01:02.047Z,651
2017-01-02T06:02:02.122Z,651
2017-01-02T06:03:02.224Z,602
2017-01-02T06:04:02.351Z,568
2017-01-02T06:05:02.471Z,603
2017-01-02T06:06:02.601Z,577
2017-01-02T06:07:02.681Z,578
2017-01-02T06:08:02.831Z,577
2017-01-02T06:09:02.931Z,577
2017-01-02T06:10:03.048Z,561
2017-01-02T06:11:03.148Z,577
2017-01-02T06:12:03.225Z,574
2017-01-02T06:13:03.328Z,565
2017-01-02T06:14:03.505Z,571
2017-01-02T06:15:03.579Z,566
2017-01-02T06:16:03.674Z,564
2017-01-02T06:17:03.778Z,563
2017-01-02T06:18:03.848Z,566
2017-01-02T06:19:03.951Z,564
2017-01-02T06:20:04.081Z,584
2017-01-02T06:21:04.172Z,591
2017-01-02T06:22:04.244Z,581
2017-01-02T06:23:04.350Z,580
2017-01-02T06:24:04.473Z,581
2017-01-02T06:25:04.623Z,586
2017-01-02T06:26:04.744Z,585
2017-01-02T06:27:04.875Z,572
2017-01-02T06:28:04.943Z,579
2017-01-02T06:29:05.128Z,616
2017-01-02T06:30:05.239Z,579
2017-01-02T06:31:05.342Z,601
2017-01-02T06:32:05.425Z,588
2017-01-02T06:33:05.542Z,585
2017-01-02T06:34:05.657Z,590
2017-01-02T06:35:05.784Z,594
2017-01-02T06:36:05.898Z,576
2017-01-02T06:37:06.024Z,606
2017-01-02T06:38:06.167Z,591
2017-01-02T06:39:06.264Z,591
2017-01-02T06:40:06.419Z,603
2017-01-02T06:41:06.513Z,602
2017-01-02T06:42:06.604Z,595
2017-01-02T06:43:06.682Z,596
2017-01-02T06:44:06.804Z,593
2017-01-02T06:45:06.899Z,596
2017-01-02T06:46:07.042Z,603
2017-01-02T06:47:07.170Z,606
2017-01-02T06:48:07.282Z,565
2017-01-02T06:49:07.399Z,557
2017-01-02T06:50:07.506Z,518
2017-01-02T06:51:07.576Z,490
2017-01-02T06:52:07.688Z,454
2017-01-02T06:53:07.829Z,453
2017-01-02T06:54:07.902Z,452
2017-01-02T06:55:08.025Z,459
2017-01-02T06:56:08.167Z,471
2017-01-02T06:57:08.255Z,472
2017-01-02T06:58:08.383Z,473
2017-01-02T06:59:08.455Z,474
2017-01-02T07:00:08.540Z,484
2017-01-02T07:01:08.623Z,481
2017-01-02T07:02:08.780Z,475
2017-01-02T07:03:08.911Z,473
2017-01-02T07:04:09.068Z,472
2017-01-02T07:05:09.189Z,462
2017-01-02T07:06:09.330Z,459
2017-01-02T07:07:09.396Z,464
2017-01-02T07:08:09.544Z,462
2017-01-02T07:09:09.634Z,461
2017-01-02T07:10:09.753Z,457
2017-01-02T07:11:09.858Z,456
2017-01-02T07:12:10.024Z,465
2017-01-02T07:13:10.155Z,467
2017-01-02T07:14:10.260Z,465
2017-01-02T07:15:10.388Z,467
2017-01-02T07:16:10.529Z,465
2017-01-02T07:17:10.617Z,466
2017-01-02T07:18:10.693Z,469
2017-01-02T07:19:10.812Z,467
2017-01-02T07:20:10.973Z,466
2017-01-02T07:21:11.093Z,468
2017-01-02T07:22:11.184Z,467
2017-01-02T07:23:11.283Z,466
2017-01-02T07:24:11.420Z,469
2017-01-02T07:25:11.510Z,467
2017-01-02T07:26:11.659Z,475
2017-01-02T07:27:11.770Z,471
2017-01-02T07:28:11.916Z,471
2017-01-02T07:29:12.056Z,472
2017-01-02T07:30:12.135Z,474
2017-01-02T07:31:12.241Z,466
2017-01-02T07:32:12.346Z,471
2017-01-02T07:33:12.429Z,470
2017-01-02T07:34:12.556Z,468
2017-01-02T07:35:12.668Z,469
2017-01-02T07:36:12.765Z,466
2017-01-02T07:37:12.872Z,464
2017-01-02T07:38:12.999Z,468
2017-01-02T07:39:13.124Z,465
2017-01-02T07:40:13.240Z,473
2017-01-02T07:41:13.318Z,473
2017-01-02T07:42:13.497Z,475
2017-01-02T07:43:13.565Z,476
2017-01-02T07:44:13.655Z,477
2017-01-02T07:45:13.751Z,470
2017-01-02T07:46:13.880Z,471
2017-01-02T07:47:14.001Z,474
2017-01-02T07:48:14.099Z,475
2017-01-02T07:49:14.266Z,473
2017-01-02T07:50:14.417Z,484
2017-01-02T07:51:14.540Z,474
2017-01-02T07:52:14.654Z,483
2017-01-02T07:53:14.748Z,484
2017-01-02T07:54:14.930Z,458
2017-01-02T07:55:15.047Z,477
2017-01-02T07:56:15.136Z,463
2017-01-02T07:57:15.241Z,465
2017-01-02T07:58:15.305Z,479
2017-01-02T07:59:15.402Z,477
2017-01-02T08:00:15.545Z,481
2017-01-02T08:01:15.652Z,472
2017-01-02T08:02:15.764Z,459
2017-01-02T08:03:15.909Z,468
2017-01-02T08:04:15.996Z,469
2017-01-02T08:05:16.119Z,471
2017-01-02T08:06:16.228Z,478
2017-01-02T08:07:16.324Z,485
2017-01-02T08:08:16.478Z,490
2017-01-02T08:09:16.558Z,486
2017-01-02T08:10:16.699Z,485
2017-01-02T08:11:16.857Z,485
2017-01-02T08:12:16.953Z,477
2017-01-02T08:13:17.010Z,478
2017-01-02T08:14:17.146Z,486
2017-01-02T08:15:17.255Z,468
2017-01-02T08:16:17.402Z,472
2017-01-02T08:17:17.524Z,470
2017-01-02T08:18:17.590Z,459
2017-01-02T08:19:17.734Z,468
2017-01-02T08:20:17.893Z,464
2017-01-02T08:21:18.010Z,466
2017-01-02T08:22:18.123Z,471
2017-01-02T08:23:18.216Z,470
2017-01-02T08:24:18.347Z,466
2017-01-02T08:25:18.477Z,470
2017-01-02T08:26:18.542Z,455
2017-01-02T08:27:18.701Z,457
2017-01-02T08:28:18.774Z,457
2017-01-02T08:29:18.872Z,455
2017-01-02T08:30:19.015Z,457
2017-01-02T08:31:19.149Z,453
2017-01-02T08:32:19.242Z,456
2017-01-02T08:33:19.427Z,447
2017-01-02T08:34:19.496Z,452
2017-01-02T08:35:19.566Z,453
2017-01-02T08:36:19.678Z,464
2017-01-02T08:37:19.840Z,464
2017-01-02T08:38:19.944Z,466
2017-01-02T08:39:20.074Z,464
2017-01-02T08:40:20.211Z,473
2017-01-02T08:41:20.381Z,537
2017-01-02T08:42:20.515Z,602
2017-01-02T08:43:20.594Z,586
2017-01-02T08:44:20.734Z,611
2017-01-02T08:45:20.813Z,604
2017-01-02T08:46:20.932Z,578
2017-01-02T08:47:21.039Z,585
2017-01-02T08:48:21.178Z,600
2017-01-02T08:49:21.262Z,597
2017-01-02T08:50:21.387Z,599
2017-01-02T08:51:21.468Z,594
2017-01-02T08:52:21.591Z,589
2017-01-02T08:53:21.701Z,591
2017-01-02T08:54:21.832Z,592
2017-01-02T08:55:21.921Z,594
2017-01-02T08:56:21.999Z,589
2017-01-02T08:57:22.129Z,584
2017-01-02T08:58:22.214Z,590
2017-01-02T08:59:22.315Z,592
2017-01-02T09:00:22.445Z,612
2017-01-02T09:01:22.532Z,632
2017-01-02T09:02:22.635Z,641
2017-01-02T09:03:22.748Z,655
2017-01-02T09:04:22.936Z,658
2017-01-02T09:05:23.047Z,658
2017-01-02T09:06:23.216Z,658
2017-01-02T09:07:23.343Z,666
2017-01-02T09:08:23.509Z,666
2017-01-02T09:09:23.584Z,664
2017-01-02T09:10:23.708Z,664
2017-01-02T09:11:23.774Z,659
2017-01-02T09:12:23.867Z,656
2017-01-02T09:13:23.988Z,658
2017-01-02T09:14:24.073Z,663
2017-01-02T09:15:24.217Z,663
2017-01-02T09:16:24.370Z,664
2017-01-02T09:17:24.535Z,663
2017-01-02T09:18:24.624Z,660
2017-01-02T09:19:24.777Z,656
2017-01-02T09:20:24.886Z,636
2017-01-02T09:21:25.091Z,640
2017-01-02T09:22:25.217Z,648
2017-01-02T09:23:25.381Z,649
2017-01-02T09:24:25.492Z,647
2017-01-02T09:25:25.599Z,639
2017-01-02T09:26:25.681Z,635
2017-01-02T09:27:25.836Z,626
2017-01-02T09:28:25.962Z,595
2017-01-02T09:29:26.124Z,574
2017-01-02T09:30:26.884Z,566
2017-01-02T09:31:26.379Z,576
2017-01-02T09:32:27.406Z,527
2017-01-02T09:33:28.392Z,524
2017-01-02T09:34:27.623Z,613
2017-01-02T09:35:27.764Z,595
2017-01-02T09:36:27.935Z,566
2017-01-02T09:37:28.199Z,595
2017-01-02T09:38:28.360Z,602
2017-01-02T09:39:28.462Z,601
2017-01-02T09:40:28.578Z,480
2017-01-02T09:41:28.679Z,456
2017-01-02T09:42:28.814Z,451
2017-01-02T09:43:28.947Z,609
2017-01-02T09:44:29.085Z,620
2017-01-02T09:45:29.215Z,620
2017-01-02T09:46:29.320Z,619
2017-01-02T09:47:29.411Z,612
2017-01-02T09:48:29.543Z,609
2017-01-02T09:49:29.665Z,587
2017-01-02T09:50:29.764Z,590
2017-01-02T09:51:29.855Z,586
2017-01-02T09:52:30.022Z,596
2017-01-02T09:53:30.175Z,587
2017-01-02T09:54:30.353Z,581
2017-01-02T09:55:30.440Z,575
2017-01-02T09:56:30.649Z,573
2017-01-02T09:57:30.948Z,568
2017-01-02T09:58:31.039Z,561
2017-01-02T09:59:31.119Z,543
2017-01-02T10:00:31.240Z,549
2017-01-02T10:01:31.337Z,548
2017-01-02T10:02:31.499Z,540
2017-01-02T10:03:31.608Z,532
2017-01-02T10:04:31.711Z,586
2017-01-02T10:05:31.830Z,518
2017-01-02T10:06:32.053Z,516
2017-01-02T10:07:32.156Z,515
2017-01-02T10:08:32.276Z,515
2017-01-02T10:09:32.403Z,492
2017-01-02T10:10:32.538Z,466
2017-01-02T10:11:32.667Z,451
2017-01-02T10:12:32.804Z,444
2017-01-02T10:13:32.903Z,438
2017-01-02T10:14:32.999Z,443
2017-01-02T10:15:33.132Z,438
2017-01-02T10:16:33.226Z,429
2017-01-02T10:17:33.376Z,481
2017-01-02T10:18:33.532Z,461
2017-01-02T10:19:33.648Z,418
2017-01-02T10:20:33.736Z,377
2017-01-02T10:21:34.413Z,438
2017-01-02T10:22:33.941Z,375
2017-01-02T10:23:34.104Z,366
2017-01-02T10:24:34.190Z,369
2017-01-02T10:25:34.310Z,354
2017-01-02T10:26:34.413Z,335
2017-01-02T10:27:34.508Z,352
2017-01-02T10:28:34.611Z,352
2017-01-02T10:29:34.712Z,320
2017-01-02T10:30:34.816Z,296
2017-01-02T10:31:34.952Z,294
2017-01-02T10:32:35.088Z,293
2017-01-02T10:33:35.183Z,292
2017-01-02T10:34:35.278Z,293
2017-01-02T10:35:35.384Z,292
2017-01-02T10:36:35.509Z,292
2017-01-02T10:37:35.648Z,292
2017-01-02T10:38:35.725Z,292
2017-01-02T10:39:35.805Z,291
2017-01-02T10:40:35.918Z,290
2017-01-02T10:41:36.050Z,290
2017-01-02T10:42:36.194Z,291
2017-01-02T10:43:36.293Z,290
2017-01-02T10:44:36.375Z,290
2017-01-02T10:45:36.464Z,290
2017-01-02T10:46:36.553Z,290
2017-01-02T10:47:36.658Z,290
2017-01-02T10:48:36.746Z,289
2017-01-02T10:49:36.894Z,289
2017-01-02T10:50:37.145Z,289
2017-01-02T10:51:37.302Z,289
2017-01-02T10:52:37.417Z,289
2017-01-02T10:53:37.516Z,289
2017-01-02T10:54:37.632Z,289
2017-01-02T10:55:37.752Z,289
2017-01-02T10:56:37.878Z,289
2017-01-02T10:57:37.961Z,289
2017-01-02T10:58:38.087Z,289
2017-01-02T10:59:38.203Z,289
2017-01-02T11:00:38.321Z,289
2017-01-02T11:01:38.441Z,289
2017-01-02T11:02:38.529Z,288
2017-01-02T11:03:38.643Z,289
2017-01-02T11:04:38.740Z,289
2017-01-02T11:05:38.932Z,289
2017-01-02T11:06:39.092Z,289
2017-01-02T11:07:39.190Z,289
2017-01-02T11:08:39.323Z,289
2017-01-02T11:09:39.440Z,289
2017-01-02T11:10:39.557Z,290
2017-01-02T11:11:39.701Z,289
2017-01-02T11:12:39.792Z,289
2017-01-02T11:13:39.881Z,289
2017-01-02T11:14:40.028Z,289
2017-01-02T11:15:40.106Z,290
2017-01-02T11:16:40.229Z,289
2017-01-02T11:17:40.333Z,289
2017-01-02T11:18:40.569Z,289
2017-01-02T11:19:40.691Z,289
2017-01-02T11:20:40.786Z,288
2017-01-02T11:21:40.893Z,288
2017-01-02T11:22:41.010Z,288
2017-01-02T11:23:41.111Z,287
2017-01-02T11:24:41.214Z,287
2017-01-02T11:25:41.386Z,286
2017-01-02T11:26:41.499Z,286
2017-01-02T11:27:41.639Z,286
2017-01-02T11:28:41.738Z,286
2017-01-02T11:29:41.834Z,285
2017-01-02T11:30:41.976Z,285
2017-01-02T11:31:42.095Z,285
2017-01-02T11:32:42.196Z,285
2017-01-02T11:33:42.270Z,285
2017-01-02T11:34:42.369Z,285
2017-01-02T11:35:42.501Z,285
2017-01-02T11:36:42.617Z,285
2017-01-02T11:37:42.809Z,285
2017-01-02T11:38:42.923Z,285
2017-01-02T11:39:43.019Z,285
2017-01-02T11:40:43.124Z,285
2017-01-02T11:41:43.264Z,285
2017-01-02T11:42:43.386Z,285
2017-01-02T11:43:43.497Z,286
2017-01-02T11:44:43.589Z,285
2017-01-02T11:45:43.708Z,285
2017-01-02T11:46:43.811Z,285
2017-01-02T11:47:43.927Z,285
2017-01-02T11:48:43.998Z,285
2017-01-02T11:49:44.095Z,285
2017-01-02T11:50:44.185Z,285
2017-01-02T11:51:44.330Z,286
2017-01-02T11:52:44.459Z,285
2017-01-02T11:53:44.568Z,285
2017-01-02T11:54:44.729Z,285
2017-01-02T11:55:44.834Z,285
2017-01-02T11:56:44.938Z,285
2017-01-02T11:57:45.048Z,286
2017-01-02T11:58:45.180Z,285
2017-01-02T11:59:45.290Z,286
2017-01-02T12:00:45.433Z,285
2017-01-02T12:01:45.559Z,285
2017-01-02T12:02:45.650Z,285
2017-01-02T12:03:45.776Z,285
2017-01-02T12:04:45.898Z,285
2017-01-02T12:05:46.020Z,285
2017-01-02T12:06:46.149Z,285
2017-01-02T12:07:46.253Z,285
2017-01-02T12:08:46.357Z,285
2017-01-02T12:09:46.459Z,285
2017-01-02T12:10:46.626Z,285
2017-01-02T12:11:46.704Z,285
2017-01-02T12:12:46.903Z,285
2017-01-02T12:13:46.991Z,285
2017-01-02T12:14:47.111Z,285
2017-01-02T12:15:47.208Z,285
2017-01-02T12:16:47.316Z,285
2017-01-02T12:17:47.400Z,285
2017-01-02T12:18:47.479Z,285
2017-01-02T12:19:47.598Z,285
2017-01-02T12:20:47.706Z,285
2017-01-02T12:21:47.800Z,285
2017-01-02T12:22:47.891Z,285
2017-01-02T12:23:47.993Z,285
2017-01-02T12:24:48.091Z,285
2017-01-02T12:25:48.200Z,285
2017-01-02T12:26:48.300Z,285
2017-01-02T12:27:48.448Z,285
2017-01-02T12:28:48.601Z,285
2017-01-02T12:29:48.701Z,285
2017-01-02T12:30:48.788Z,285
2017-01-02T12:31:48.893Z,285
2017-01-02T12:32:49.003Z,285
2017-01-02T12:33:49.114Z,285
2017-01-02T12:34:49.244Z,285
2017-01-02T12:35:49.344Z,285
2017-01-02T12:36:49.467Z,285
2017-01-02T12:37:49.547Z,285
2017-01-02T12:38:49.659Z,285
2017-01-02T12:39:49.741Z,285
2017-01-02T12:40:49.935Z,285
2017-01-02T12:41:49.990Z,285
2017-01-02T12:42:50.119Z,285
2017-01-02T12:43:50.210Z,285
2017-01-02T12:44:50.306Z,285
2017-01-02T12:45:50.406Z,285
2017-01-02T12:46:50.615Z,285
2017-01-02T12:47:50.806Z,285
2017-01-02T12:48:50.925Z,284
2017-01-02T12:49:51.016Z,285
2017-01-02T12:50:51.125Z,284
2017-01-02T12:51:51.234Z,285
2017-01-02T12:52:51.329Z,285
2017-01-02T12:53:51.452Z,284
2017-01-02T12:54:51.602Z,285
2017-01-02T12:55:51.678Z,284
2017-01-02T12:56:51.813Z,284
2017-01-02T12:57:51.925Z,284
2017-01-02T12:58:52.030Z,284
2017-01-02T12:59:52.145Z,284
2017-01-02T13:00:52.246Z,284
2017-01-02T13:01:52.346Z,284
2017-01-02T13:02:52.470Z,284
2017-01-02T13:03:52.564Z,284
2017-01-02T13:04:52.678Z,284
2017-01-02T13:05:52.795Z,284
2017-01-02T13:06:52.926Z,285
2017-01-02T13:07:53.008Z,284
2017-01-02T13:08:53.093Z,284
2017-01-02T13:09:53.327Z,284
2017-01-02T13:10:53.423Z,285
2017-01-02T13:11:53.522Z,285
2017-01-02T13:12:53.595Z,284
2017-01-02T13:13:53.687Z,284
2017-01-02T13:14:53.802Z,285
2017-01-02T13:15:53.927Z,285
2017-01-02T13:16:55.470Z,284
2017-01-02T13:17:54.208Z,285
2017-01-02T13:18:54.281Z,285
2017-01-02T13:19:54.423Z,285
2017-01-02T13:20:54.616Z,285
2017-01-02T13:21:54.779Z,284
2017-01-02T13:22:54.883Z,285
2017-01-02T13:23:54.953Z,284
2017-01-02T13:24:55.042Z,284
2017-01-02T13:25:55.136Z,284
2017-01-02T13:26:55.228Z,284
2017-01-02T13:27:55.374Z,284
2017-01-02T13:28:55.466Z,284
2017-01-02T13:29:55.634Z,284
2017-01-02T13:30:55.719Z,284
2017-01-02T13:31:55.853Z,284
2017-01-02T13:32:55.930Z,284
2017-01-02T13:33:56.031Z,284
2017-01-02T13:34:56.124Z,284
2017-01-02T13:35:56.235Z,284
2017-01-02T13:36:56.355Z,284
2017-01-02T13:37:56.479Z,284
2017-01-02T13:38:56.559Z,284
2017-01-02T13:39:56.666Z,284
2017-01-02T13:40:56.822Z,284
2017-01-02T13:41:56.936Z,284
2017-01-02T13:42:57.067Z,284
2017-01-02T13:43:57.153Z,284
2017-01-02T13:44:57.297Z,284
2017-01-02T13:45:57.411Z,284
2017-01-02T13:46:57.514Z,284
2017-01-02T13:47:57.683Z,285